Time,TemperatureF,DewpointF,PressureIn,WindDirection,WindDirectionDegrees,WindSpeedMPH,WindSpeedGustMPH,Humidity,HourlyPrecipIn,Conditions,Clouds,dailyrainin,SoftwareType,DateUTC
2013-06-22 00:02:00,50.4,46.7,29.91,East,86,0.0,0.0,87,0.00,,,0.00,LWC V2.00 B2112,2013-06-22 07:02:00,
2013-06-22 00:07:00,50.1,46.4,29.91,East,86,0.0,0.0,87,0.00,,,0.00,LWC V2.00 B2112,2013-06-22 07:07:00,
2013-06-22 00:12:00,50.0,46.3,29.91,East,86,0.0,0.0,87,0.00,,,0.00,LWC V2.00 B2112,2013-06-22 07:12:00,
2013-06-22 00:17:00,49.8,46.4,29.91,East,86,0.0,0.0,88,0.00,,,0.00,LWC V2.00 B2112,2013-06-22 07:17:00,
2013-06-22 00:22:00,49.6,46.2,29.91,East,86,0.0,0.0,88,0.00,,,0.00,LWC V2.00 B2112,2013-06-22 07:22:00,
2013-06-22 00:27:00,49.3,45.9,29.92,East,86,0.0,0.0,88,0.00,,,0.00,LWC V2.00 B2112,2013-06-22 07:27:00,
2013-06-22 00:32:00,49.1,45.7,29.92,East,88,0.0,0.0,88,0.00,,,0.00,LWC V2.00 B2112,2013-06-22 07:32:00,
2013-06-22 00:37:00,49.0,45.6,29.92,East,86,0.0,0.0,88,0.00,,,0.00,LWC V2.00 B2112,2013-06-22 07:37:00,
2013-06-22 00:42:00,49.0,45.6,29.91,East,88,0.0,0.0,88,0.00,,,0.00,LWC V2.00 B2112,2013-06-22 07:42:00,
2013-06-22 00:47:00,49.0,45.6,29.91,East,86,0.0,0.0,88,0.00,,,0.00,LWC V2.00 B2112,2013-06-22 07:47:00,
2013-06-22 00:52:00,48.8,45.4,29.91,East,86,0.0,0.0,88,0.00,,,0.00,LWC V2.00 B2112,2013-06-22 07:52:00,
2013-06-22 00:57:00,48.7,45.3,29.91,East,86,0.0,0.0,88,0.00,,,0.00,LWC V2.00 B2112,2013-06-22 07:57:00,
2013-06-22 01:02:00,48.5,45.1,29.91,East,86,0.0,0.0,88,0.00,,,0.00,LWC V2.00 B2112,2013-06-22 08:02:00,
2013-06-22 01:07:00,48.3,44.9,29.90,East,86,0.0,0.0,88,0.00,,,0.00,LWC V2.00 B2112,2013-06-22 08:07:00,
2013-06-22 01:12:00,48.1,44.7,29.90,East,87,0.0,0.0,88,0.00,,,0.00,LWC V2.00 B2112,2013-06-22 08:12:00,
2013-06-22 01:17:00,47.9,44.5,29.90,East,86,0.0,0.0,88,0.00,,,0.00,LWC V2.00 B2112,2013-06-22 08:17:00,
2013-06-22 01:22:00,47.8,44.4,29.90,East,88,0.0,0.0,88,0.00,,,0.00,LWC V2.00 B2112,2013-06-22 08:22:00,
2013-06-22 01:27:00,47.5,44.1,29.90,East,86,0.0,0.0,88,0.00,,,0.00,LWC V2.00 B2112,2013-06-22 08:27:00,
2013-06-22 01:32:00,47.4,44.0,29.90,East,86,0.0,0.0,88,0.00,,,0.00,LWC V2.00 B2112,2013-06-22 08:32:00,
2013-06-22 01:37:00,47.2,43.8,29.90,East,86,0.0,0.0,88,0.00,,,0.00,LWC V2.00 B2112,2013-06-22 08:37:00,
2013-06-22 01:42:00,47.1,44.0,29.89,East,86,0.0,0.0,89,0.00,,,0.00,LWC V2.00 B2112,2013-06-22 08:42:00,
2013-06-22 01:47:00,47.0,43.9,29.89,East,86,0.0,0.0,89,0.00,,,0.00,LWC V2.00 B2112,2013-06-22 08:47:00,
2013-06-22 01:52:00,46.9,43.8,29.89,East,86,0.0,0.0,89,0.00,,,0.00,LWC V2.00 B2112,2013-06-22 08:52:00,
2013-06-22 01:57:00,46.7,43.6,29.89,East,86,0.0,0.0,89,0.00,,,0.00,LWC V2.00 B2112,2013-06-22 08:57:00,
2013-06-22 02:02:00,46.7,43.6,29.89,East,86,0.0,0.0,89,0.00,,,0.00,LWC V2.00 B2112,2013-06-22 09:02:00,
2013-06-22 02:07:00,46.6,43.5,29.89,East,86,0.0,0.0,89,0.00,,,0.00,LWC V2.00 B2112,2013-06-22 09:07:00,
2013-06-22 02:12:00,46.4,43.3,29.89,East,86,0.0,0.0,89,0.00,,,0.00,LWC V2.00 B2112,2013-06-22 09:12:00,
2013-06-22 02:17:00,46.3,43.2,29.89,East,86,0.0,0.0,89,0.00,,,0.00,LWC V2.00 B2112,2013-06-22 09:17:00,
2013-06-22 02:22:00,46.3,43.2,29.89,East,86,0.0,0.0,89,0.00,,,0.00,LWC V2.00 B2112,2013-06-22 09:22:00,
2013-06-22 02:27:00,46.1,43.0,29.89,East,86,0.0,0.0,89,0.00,,,0.00,LWC V2.00 B2112,2013-06-22 09:27:00,
2013-06-22 02:32:00,46.1,43.0,29.89,East,86,0.0,0.0,89,0.00,,,0.00,LWC V2.00 B2112,2013-06-22 09:32:00,
2013-06-22 02:37:00,46.0,42.9,29.89,East,86,0.0,0.0,89,0.00,,,0.00,LWC V2.00 B2112,2013-06-22 09:37:00,
2013-06-22 02:42:00,45.9,42.8,29.89,East,86,0.0,0.0,89,0.00,,,0.00,LWC V2.00 B2112,2013-06-22 09:42:00,
2013-06-22 02:47:00,45.7,42.6,29.89,East,88,0.0,0.0,89,0.00,,,0.00,LWC V2.00 B2112,2013-06-22 09:47:00,
2013-06-22 02:52:00,45.7,42.6,29.89,East,86,0.0,0.0,89,0.00,,,0.00,LWC V2.00 B2112,2013-06-22 09:52:00,
2013-06-22 02:57:00,45.8,42.7,29.89,East,86,0.0,0.0,89,0.00,,,0.00,LWC V2.00 B2112,2013-06-22 09:57:00,
2013-06-22 03:02:00,45.9,42.8,29.89,West,269,0.0,0.0,89,0.00,,,0.00,LWC V2.00 B2112,2013-06-22 10:02:00,
2013-06-22 03:07:00,45.9,42.8,29.89,West,269,0.0,0.0,89,0.00,,,0.00,LWC V2.00 B2112,2013-06-22 10:07:00,
2013-06-22 03:12:00,45.9,42.8,29.89,West,269,0.0,0.0,89,0.00,,,0.00,LWC V2.00 B2112,2013-06-22 10:12:00,
2013-06-22 03:17:00,45.8,42.7,29.89,West,269,0.0,0.0,89,0.00,,,0.00,LWC V2.00 B2112,2013-06-22 10:17:00,
2013-06-22 03:22:00,45.7,42.6,29.89,West,269,0.0,0.0,89,0.00,,,0.00,LWC V2.00 B2112,2013-06-22 10:22:00,
2013-06-22 03:27:00,45.7,42.6,29.89,West,269,0.0,0.0,89,0.00,,,0.00,LWC V2.00 B2112,2013-06-22 10:27:00,
2013-06-22 03:32:00,45.6,42.5,29.89,West,269,0.0,0.0,89,0.00,,,0.00,LWC V2.00 B2112,2013-06-22 10:32:00,
2013-06-22 03:37:00,45.5,42.4,29.89,West,269,0.0,0.0,89,0.00,,,0.00,LWC V2.00 B2112,2013-06-22 10:37:00,
2013-06-22 03:42:00,45.3,42.3,29.88,West,269,0.0,0.0,89,0.00,,,0.00,LWC V2.00 B2112,2013-06-22 10:42:00,
2013-06-22 03:47:00,45.2,42.2,29.88,West,269,0.0,0.0,89,0.00,,,0.00,LWC V2.00 B2112,2013-06-22 10:47:00,
2013-06-22 03:52:00,45.0,42.0,29.88,West,269,0.0,0.0,89,0.00,,,0.00,LWC V2.00 B2112,2013-06-22 10:52:00,
2013-06-22 03:57:00,45.0,42.2,29.88,West,269,0.0,0.0,90,0.00,,,0.00,LWC V2.00 B2112,2013-06-22 10:57:00,
2013-06-22 04:02:00,45.0,42.2,29.88,West,269,0.0,0.0,90,0.00,,,0.00,LWC V2.00 B2112,2013-06-22 11:02:00,
2013-06-22 04:07:00,44.9,42.1,29.88,West,269,0.0,0.0,90,0.00,,,0.00,LWC V2.00 B2112,2013-06-22 11:07:00,
2013-06-22 04:12:00,44.9,42.1,29.88,West,269,0.0,0.0,90,0.00,,,0.00,LWC V2.00 B2112,2013-06-22 11:12:00,
2013-06-22 04:17:00,44.8,42.0,29.88,West,269,0.0,0.0,90,0.00,,,0.00,LWC V2.00 B2112,2013-06-22 11:17:00,
2013-06-22 04:22:00,44.8,42.0,29.88,West,269,0.0,0.0,90,0.00,,,0.00,LWC V2.00 B2112,2013-06-22 11:22:00,
2013-06-22 04:27:00,44.9,42.1,29.88,West,269,0.0,0.0,90,0.00,,,0.00,LWC V2.00 B2112,2013-06-22 11:27:00,
2013-06-22 04:32:00,44.8,42.0,29.88,West,269,0.0,0.0,90,0.00,,,0.00,LWC V2.00 B2112,2013-06-22 11:32:00,
2013-06-22 04:37:00,44.7,41.9,29.88,West,269,0.0,0.0,90,0.00,,,0.00,LWC V2.00 B2112,2013-06-22 11:37:00,
2013-06-22 04:42:00,44.5,41.8,29.88,West,269,0.0,0.0,90,0.00,,,0.00,LWC V2.00 B2112,2013-06-22 11:42:00,
2013-06-22 04:47:00,44.5,41.8,29.88,West,269,0.0,0.0,90,0.00,,,0.00,LWC V2.00 B2112,2013-06-22 11:47:00,
2013-06-22 04:52:00,44.5,41.8,29.88,West,269,0.0,0.0,90,0.00,,,0.00,LWC V2.00 B2112,2013-06-22 11:52:00,
2013-06-22 04:57:00,44.3,41.6,29.88,West,269,0.0,0.0,90,0.00,,,0.00,LWC V2.00 B2112,2013-06-22 11:57:00,
2013-06-22 05:02:00,44.1,41.4,29.88,West,269,0.0,0.0,90,0.00,,,0.00,LWC V2.00 B2112,2013-06-22 12:02:00,
2013-06-22 05:07:00,44.0,41.3,29.88,West,269,0.0,0.0,90,0.00,,,0.00,LWC V2.00 B2112,2013-06-22 12:07:00,
2013-06-22 05:12:00,43.8,41.1,29.88,West,269,0.0,0.0,90,0.00,,,0.00,LWC V2.00 B2112,2013-06-22 12:12:00,
2013-06-22 05:17:00,43.7,41.0,29.88,West,269,0.0,0.0,90,0.00,,,0.00,LWC V2.00 B2112,2013-06-22 12:17:00,
2013-06-22 05:22:00,43.5,40.8,29.88,West,269,0.0,0.0,90,0.00,,,0.00,LWC V2.00 B2112,2013-06-22 12:22:00,
2013-06-22 05:27:00,43.4,40.7,29.88,West,269,0.0,0.0,90,0.00,,,0.00,LWC V2.00 B2112,2013-06-22 12:27:00,
2013-06-22 05:32:00,43.3,40.6,29.88,West,269,0.0,0.0,90,0.00,,,0.00,LWC V2.00 B2112,2013-06-22 12:32:00,
2013-06-22 05:38:00,43.3,40.6,29.88,West,269,0.0,0.0,90,0.00,,,0.00,LWC V2.00 B2112,2013-06-22 12:38:00,
2013-06-22 05:43:00,43.2,40.5,29.88,West,269,0.0,0.0,90,0.00,,,0.00,LWC V2.00 B2112,2013-06-22 12:43:00,
2013-06-22 05:48:00,43.1,40.4,29.88,West,269,0.0,0.0,90,0.00,,,0.00,LWC V2.00 B2112,2013-06-22 12:48:00,
2013-06-22 05:53:00,43.1,40.4,29.88,West,269,0.0,0.0,90,0.00,,,0.00,LWC V2.00 B2112,2013-06-22 12:53:00,
2013-06-22 05:58:00,43.2,40.5,29.89,West,269,0.0,0.0,90,0.00,,,0.00,LWC V2.00 B2112,2013-06-22 12:58:00,
2013-06-22 06:03:00,43.3,40.6,29.89,West,269,0.0,0.0,90,0.00,,,0.00,LWC V2.00 B2112,2013-06-22 13:03:00,
2013-06-22 06:08:00,43.3,40.6,29.89,West,269,0.0,0.0,90,0.00,,,0.00,LWC V2.00 B2112,2013-06-22 13:08:00,
2013-06-22 06:13:00,43.4,40.7,29.89,West,269,0.0,0.0,90,0.00,,,0.00,LWC V2.00 B2112,2013-06-22 13:13:00,
2013-06-22 06:18:00,43.4,40.7,29.89,West,269,0.0,0.0,90,0.00,,,0.00,LWC V2.00 B2112,2013-06-22 13:18:00,
2013-06-22 06:23:00,43.5,40.8,29.89,West,269,0.0,0.0,90,0.00,,,0.00,LWC V2.00 B2112,2013-06-22 13:23:00,
2013-06-22 06:28:00,43.8,41.1,29.89,West,269,0.0,0.0,90,0.00,,,0.00,LWC V2.00 B2112,2013-06-22 13:28:00,
2013-06-22 06:33:00,44.0,41.3,29.89,West,269,0.0,0.0,90,0.00,,,0.00,LWC V2.00 B2112,2013-06-22 13:33:00,
2013-06-22 06:38:00,44.2,41.5,29.89,West,269,0.0,0.0,90,0.00,,,0.00,LWC V2.00 B2112,2013-06-22 13:38:00,
2013-06-22 06:43:00,-999.0,-99.9,-100.00,North,-999,-999.0,0.0,-999,-99.99,,,0.00,LWC V2.00 B2112,2013-06-22 13:43:00,
2013-06-22 06:48:00,44.6,41.8,29.89,West,269,0.0,0.0,90,0.00,,,0.00,LWC V2.00 B2112,2013-06-22 13:48:00,
2013-06-22 06:53:00,44.9,42.1,29.89,West,269,0.0,0.0,90,0.00,,,0.00,LWC V2.00 B2112,2013-06-22 13:53:00,
2013-06-22 06:58:00,45.9,43.1,29.89,West,269,0.0,0.0,90,0.00,,,0.00,LWC V2.00 B2112,2013-06-22 13:58:00,
2013-06-22 07:03:00,47.1,44.3,29.89,West,269,0.0,0.0,90,0.00,,,0.00,LWC V2.00 B2112,2013-06-22 14:03:00,
2013-06-22 07:08:00,48.4,45.6,29.89,West,269,0.0,0.0,90,0.00,,,0.00,LWC V2.00 B2112,2013-06-22 14:08:00,
2013-06-22 07:13:00,50.5,47.7,29.89,West,273,0.0,0.0,90,0.00,,,0.00,LWC V2.00 B2112,2013-06-22 14:13:00,
2013-06-22 07:18:00,51.6,48.8,29.90,NW,308,0.0,0.0,90,0.00,,,0.00,LWC V2.00 B2112,2013-06-22 14:18:00,
2013-06-22 07:23:00,51.6,48.8,29.90,ENE,57,0.0,2.0,90,0.00,,,0.00,LWC V2.00 B2112,2013-06-22 14:23:00,
2013-06-22 07:28:00,52.3,49.2,29.90,ESE,120,1.0,1.0,89,0.00,,,0.00,LWC V2.00 B2112,2013-06-22 14:28:00,
2013-06-22 07:33:00,52.9,49.7,29.90,East,97,0.0,3.0,89,0.00,,,0.00,LWC V2.00 B2112,2013-06-22 14:33:00,
2013-06-22 07:38:00,53.4,49.9,29.90,ENE,76,0.0,2.0,88,0.00,,,0.00,LWC V2.00 B2112,2013-06-22 14:38:00,
2013-06-22 07:43:00,54.2,50.7,29.90,ENE,71,1.0,1.0,88,0.00,,,0.00,LWC V2.00 B2112,2013-06-22 14:43:00,
2013-06-22 07:48:00,54.6,50.5,29.90,ENE,64,0.0,3.0,86,0.00,,,0.00,LWC V2.00 B2112,2013-06-22 14:48:00,
2013-06-22 07:53:00,55.1,50.7,29.90,ENE,68,0.0,0.0,85,0.00,,,0.00,LWC V2.00 B2112,2013-06-22 14:53:00,
2013-06-22 07:58:00,56.1,51.7,29.90,ESE,107,0.0,0.0,85,0.00,,,0.00,LWC V2.00 B2112,2013-06-22 14:58:00,
2013-06-22 08:03:00,56.7,51.3,29.90,East,89,0.0,2.0,82,0.00,,,0.00,LWC V2.00 B2112,2013-06-22 15:03:00,
2013-06-22 08:08:00,57.2,51.4,29.90,ESE,103,0.0,0.0,81,0.00,,,0.00,LWC V2.00 B2112,2013-06-22 15:08:00,
2013-06-22 08:13:00,57.6,51.5,29.90,ESE,106,1.0,3.0,80,0.00,,,0.00,LWC V2.00 B2112,2013-06-22 15:13:00,
2013-06-22 08:18:00,58.1,51.6,29.90,East,96,1.0,2.0,79,0.00,,,0.00,LWC V2.00 B2112,2013-06-22 15:18:00,
2013-06-22 08:23:00,58.7,52.2,29.90,ENE,77,1.0,2.0,79,0.00,,,0.00,LWC V2.00 B2112,2013-06-22 15:23:00,
2013-06-22 08:28:00,59.0,51.8,29.90,East,99,1.0,3.0,77,0.00,,,0.00,LWC V2.00 B2112,2013-06-22 15:28:00,
2013-06-22 08:33:00,59.5,52.6,29.90,ESE,105,0.0,0.0,78,0.00,,,0.00,LWC V2.00 B2112,2013-06-22 15:33:00,
2013-06-22 08:38:00,60.9,53.6,29.90,East,99,0.0,1.0,77,0.00,,,0.00,LWC V2.00 B2112,2013-06-22 15:38:00,
2013-06-22 08:43:00,62.1,53.3,29.90,East,92,0.0,0.0,73,0.00,,,0.00,LWC V2.00 B2112,2013-06-22 15:43:00,
2013-06-22 08:48:00,62.6,53.4,29.90,East,85,0.0,0.0,72,0.00,,,0.00,LWC V2.00 B2112,2013-06-22 15:48:00,
2013-06-22 08:53:00,63.7,54.1,29.90,East,94,1.0,1.0,71,0.00,,,0.00,LWC V2.00 B2112,2013-06-22 15:53:00,
2013-06-22 08:58:00,64.8,54.0,29.90,East,84,0.0,2.0,68,0.00,,,0.00,LWC V2.00 B2112,2013-06-22 15:58:00,
2013-06-22 09:03:00,65.0,53.8,29.91,East,88,0.0,1.0,67,0.00,,,0.00,LWC V2.00 B2112,2013-06-22 16:03:00,
2013-06-22 09:08:00,65.0,54.2,29.91,ESE,105,0.0,0.0,68,0.00,,,0.00,LWC V2.00 B2112,2013-06-22 16:08:00,
2013-06-22 09:13:00,65.6,54.3,29.91,ESE,103,0.0,0.0,67,0.00,,,0.00,LWC V2.00 B2112,2013-06-22 16:13:00,
2013-06-22 09:18:00,66.4,54.7,29.91,ESE,102,0.0,1.0,66,0.00,,,0.00,LWC V2.00 B2112,2013-06-22 16:18:00,
2013-06-22 09:23:00,67.4,55.2,29.91,North,356,0.0,0.0,65,0.00,,,0.00,LWC V2.00 B2112,2013-06-22 16:23:00,
2013-06-22 09:28:00,68.7,56.0,29.91,NE,37,0.0,0.0,64,0.00,,,0.00,LWC V2.00 B2112,2013-06-22 16:28:00,
2013-06-22 09:33:00,69.4,55.8,29.91,North,4,0.0,0.0,62,0.00,,,0.00,LWC V2.00 B2112,2013-06-22 16:33:00,
2013-06-22 09:38:00,69.8,55.7,29.91,East,96,0.0,0.0,61,0.00,,,0.00,LWC V2.00 B2112,2013-06-22 16:38:00,
2013-06-22 09:43:00,70.0,55.9,29.90,NW,318,4.0,4.0,61,0.00,,,0.00,LWC V2.00 B2112,2013-06-22 16:43:00,
2013-06-22 09:48:00,69.0,55.0,29.90,WNW,301,1.0,2.0,61,0.00,,,0.00,LWC V2.00 B2112,2013-06-22 16:48:00,
2013-06-22 09:53:00,68.8,54.8,29.90,SW,233,2.0,2.0,61,0.00,,,0.00,LWC V2.00 B2112,2013-06-22 16:53:00,
2013-06-22 09:58:00,68.8,54.3,29.90,SE,132,1.0,3.0,60,0.00,,,0.00,LWC V2.00 B2112,2013-06-22 16:58:00,
2013-06-22 10:03:00,68.4,54.4,29.90,ESE,105,3.0,3.0,61,0.00,,,0.00,LWC V2.00 B2112,2013-06-22 17:03:00,
2013-06-22 10:08:00,67.8,53.4,29.90,East,99,2.0,3.0,60,0.00,,,0.00,LWC V2.00 B2112,2013-06-22 17:08:00,
2013-06-22 10:13:00,67.5,53.1,29.90,ESE,119,2.0,4.0,60,0.00,,,0.00,LWC V2.00 B2112,2013-06-22 17:13:00,
2013-06-22 10:18:00,66.7,52.8,29.90,ESE,105,2.0,5.0,61,0.00,,,0.00,LWC V2.00 B2112,2013-06-22 17:18:00,
2013-06-22 10:23:00,66.5,53.9,29.90,ESE,108,2.0,3.0,64,0.00,,,0.00,LWC V2.00 B2112,2013-06-22 17:23:00,
2013-06-22 10:28:00,66.9,54.7,29.90,ESE,105,1.0,2.0,65,0.00,,,0.00,LWC V2.00 B2112,2013-06-22 17:28:00,
2013-06-22 10:33:00,67.3,52.0,29.90,ESE,106,1.0,5.0,58,0.00,,,0.00,LWC V2.00 B2112,2013-06-22 17:33:00,
2013-06-22 10:38:00,67.8,54.3,29.90,East,85,3.0,3.0,62,0.00,,,0.00,LWC V2.00 B2112,2013-06-22 17:38:00,
2013-06-22 10:43:00,68.6,52.3,29.90,ENE,63,0.0,3.0,56,0.00,,,0.00,LWC V2.00 B2112,2013-06-22 17:43:00,
2013-06-22 10:48:00,69.3,52.4,29.91,SW,232,1.0,2.0,55,0.00,,,0.00,LWC V2.00 B2112,2013-06-22 17:48:00,
2013-06-22 10:53:00,69.9,53.0,29.91,East,94,2.0,4.0,55,0.00,,,0.00,LWC V2.00 B2112,2013-06-22 17:53:00,
2013-06-22 10:58:00,69.8,51.9,29.91,SE,138,2.0,3.0,53,0.00,,,0.00,LWC V2.00 B2112,2013-06-22 17:58:00,
2013-06-22 11:03:00,69.5,51.6,29.91,SSW,210,2.0,2.0,53,0.00,,,0.00,LWC V2.00 B2112,2013-06-22 18:03:00,
2013-06-22 11:08:00,69.2,51.8,29.91,ESE,122,1.0,2.0,54,0.00,,,0.00,LWC V2.00 B2112,2013-06-22 18:08:00,
2013-06-22 11:13:00,69.6,53.7,29.91,SW,217,1.0,4.0,57,0.00,,,0.00,LWC V2.00 B2112,2013-06-22 18:13:00,
2013-06-22 11:18:00,70.2,53.8,29.91,SE,141,2.0,2.0,56,0.00,,,0.00,LWC V2.00 B2112,2013-06-22 18:18:00,
2013-06-22 11:23:00,70.1,52.7,29.91,East,97,2.0,5.0,54,0.00,,,0.00,LWC V2.00 B2112,2013-06-22 18:23:00,
2013-06-22 11:28:00,68.9,53.0,29.91,ESE,108,3.0,5.0,57,0.00,,,0.00,LWC V2.00 B2112,2013-06-22 18:28:00,
2013-06-22 11:33:00,68.2,53.3,29.91,NE,42,0.0,3.0,59,0.00,,,0.00,LWC V2.00 B2112,2013-06-22 18:33:00,
2013-06-22 11:38:00,68.5,53.1,29.91,ESE,111,2.0,6.0,58,0.00,,,0.00,LWC V2.00 B2112,2013-06-22 18:38:00,
2013-06-22 11:43:00,68.8,53.4,29.91,SE,133,1.0,2.0,58,0.00,,,0.00,LWC V2.00 B2112,2013-06-22 18:43:00,
2013-06-22 11:48:00,69.7,53.8,29.91,East,91,2.0,4.0,57,0.00,,,0.00,LWC V2.00 B2112,2013-06-22 18:48:00,
2013-06-22 11:53:00,68.8,53.4,29.91,ESE,108,3.0,3.0,58,0.00,,,0.00,LWC V2.00 B2112,2013-06-22 18:53:00,
2013-06-22 11:58:00,68.5,53.1,29.91,East,88,4.0,6.0,58,0.00,,,0.00,LWC V2.00 B2112,2013-06-22 18:58:00,
2013-06-22 12:03:00,68.3,53.4,29.91,ESE,105,6.0,6.0,59,0.00,,,0.00,LWC V2.00 B2112,2013-06-22 19:03:00,
2013-06-22 12:08:00,68.6,54.1,29.90,NW,309,2.0,2.0,60,0.00,,,0.00,LWC V2.00 B2112,2013-06-22 19:08:00,
2013-06-22 12:13:00,69.9,54.9,29.91,ESE,103,1.0,5.0,59,0.00,,,0.00,LWC V2.00 B2112,2013-06-22 19:13:00,
2013-06-22 12:18:00,70.4,55.4,29.91,NE,50,1.0,2.0,59,0.00,,,0.00,LWC V2.00 B2112,2013-06-22 19:18:00,
2013-06-22 12:23:00,70.5,55.0,29.91,NNW,334,0.0,3.0,58,0.00,,,0.00,LWC V2.00 B2112,2013-06-22 19:23:00,
2013-06-22 12:28:00,71.5,54.0,29.91,NNE,21,0.0,3.0,54,0.00,,,0.00,LWC V2.00 B2112,2013-06-22 19:28:00,
2013-06-22 12:33:00,71.7,54.7,29.91,NNW,340,4.0,5.0,55,0.00,,,0.00,LWC V2.00 B2112,2013-06-22 19:33:00,
2013-06-22 12:38:00,70.5,54.0,29.91,NNW,345,3.0,4.0,56,0.00,,,0.00,LWC V2.00 B2112,2013-06-22 19:38:00,
2013-06-22 12:43:00,69.1,53.7,29.92,NNW,330,5.0,5.0,58,0.00,,,0.00,LWC V2.00 B2112,2013-06-22 19:43:00,
2013-06-22 12:48:00,67.9,53.5,29.92,East,86,3.0,5.0,60,0.00,,,0.00,LWC V2.00 B2112,2013-06-22 19:48:00,
2013-06-22 12:53:00,67.2,53.3,29.92,WNW,289,2.0,6.0,61,0.00,,,0.00,LWC V2.00 B2112,2013-06-22 19:53:00,
2013-06-22 12:58:00,66.9,53.4,29.92,NW,326,3.0,6.0,62,0.00,,,0.00,LWC V2.00 B2112,2013-06-22 19:58:00,
2013-06-22 13:03:00,66.7,53.7,29.92,NNE,25,1.0,5.0,63,0.00,,,0.00,LWC V2.00 B2112,2013-06-22 20:03:00,
2013-06-22 13:08:00,66.8,53.4,29.92,SE,129,1.0,4.0,62,0.00,,,0.00,LWC V2.00 B2112,2013-06-22 20:08:00,
2013-06-22 13:13:00,66.9,53.0,29.92,East,101,2.0,6.0,61,0.00,,,0.00,LWC V2.00 B2112,2013-06-22 20:13:00,
2013-06-22 13:18:00,67.2,53.7,29.91,NW,323,2.0,5.0,62,0.00,,,0.00,LWC V2.00 B2112,2013-06-22 20:18:00,
2013-06-22 13:23:00,67.4,53.9,29.91,ENE,77,3.0,3.0,62,0.00,,,0.00,LWC V2.00 B2112,2013-06-22 20:23:00,
2013-06-22 13:28:00,67.6,52.8,29.91,SSE,152,0.0,5.0,59,0.00,,,0.00,LWC V2.00 B2112,2013-06-22 20:28:00,
2013-06-22 13:33:00,68.3,52.5,29.91,WNW,289,2.0,3.0,57,0.00,,,0.00,LWC V2.00 B2112,2013-06-22 20:33:00,
2013-06-22 13:38:00,68.2,52.4,29.91,East,101,2.0,2.0,57,0.00,,,0.00,LWC V2.00 B2112,2013-06-22 20:38:00,
2013-06-22 13:43:00,68.6,52.7,29.91,WNW,301,6.0,6.0,57,0.00,,,0.00,LWC V2.00 B2112,2013-06-22 20:43:00,
2013-06-22 13:48:00,68.7,52.8,29.91,SE,143,1.0,3.0,57,0.00,,,0.00,LWC V2.00 B2112,2013-06-22 20:48:00,
2013-06-22 13:53:00,68.6,53.7,29.91,SSW,193,0.0,5.0,59,0.00,,,0.00,LWC V2.00 B2112,2013-06-22 20:53:00,
2013-06-22 13:58:00,68.6,52.3,29.91,ENE,60,2.0,10.0,56,0.00,,,0.00,LWC V2.00 B2112,2013-06-22 20:58:00,
2013-06-22 14:03:00,67.9,52.1,29.91,NE,49,2.0,5.0,57,0.00,,,0.00,LWC V2.00 B2112,2013-06-22 21:03:00,
2013-06-22 14:08:00,67.9,53.0,29.90,NNE,13,3.0,7.0,59,0.00,,,0.00,LWC V2.00 B2112,2013-06-22 21:08:00,
2013-06-22 14:13:00,68.0,53.1,29.91,NE,43,2.0,4.0,59,0.00,,,0.00,LWC V2.00 B2112,2013-06-22 21:13:00,
2013-06-22 14:18:00,67.7,52.8,29.90,ESE,103,2.0,4.0,59,0.00,,,0.00,LWC V2.00 B2112,2013-06-22 21:18:00,
2013-06-22 14:23:00,67.5,53.1,29.90,NW,317,2.0,6.0,60,0.00,,,0.00,LWC V2.00 B2112,2013-06-22 21:23:00,
2013-06-22 14:28:00,67.0,53.1,29.90,East,86,2.0,10.0,61,0.00,,,0.00,LWC V2.00 B2112,2013-06-22 21:28:00,
2013-06-22 14:33:00,66.9,53.0,29.90,SW,214,2.0,8.0,61,0.00,,,0.00,LWC V2.00 B2112,2013-06-22 21:33:00,
2013-06-22 14:38:00,66.9,53.4,29.91,ENE,65,2.0,3.0,62,0.00,,,0.00,LWC V2.00 B2112,2013-06-22 21:38:00,
2013-06-22 14:43:00,66.9,53.0,29.90,NW,313,2.0,4.0,61,0.00,,,0.00,LWC V2.00 B2112,2013-06-22 21:43:00,
2013-06-22 14:48:00,66.5,53.1,29.90,South,189,3.0,8.0,62,0.00,,,0.00,LWC V2.00 B2112,2013-06-22 21:48:00,
2013-06-22 14:53:00,66.6,51.8,29.90,North,1,2.0,6.0,59,0.00,,,0.00,LWC V2.00 B2112,2013-06-22 21:53:00,
2013-06-22 14:58:00,66.3,52.9,29.90,ESE,119,2.0,6.0,62,0.00,,,0.00,LWC V2.00 B2112,2013-06-22 21:58:00,
2013-06-22 15:03:00,66.5,52.2,29.90,SSW,200,1.0,5.0,60,0.00,,,0.00,LWC V2.00 B2112,2013-06-22 22:03:00,
2013-06-22 15:08:00,66.6,52.3,29.90,ENE,68,1.0,2.0,60,0.00,,,0.00,LWC V2.00 B2112,2013-06-22 22:08:00,
2013-06-22 15:13:00,67.5,52.7,29.90,NW,323,8.0,8.0,59,0.00,,,0.00,LWC V2.00 B2112,2013-06-22 22:13:00,
2013-06-22 15:18:00,68.0,53.6,29.90,East,101,0.0,2.0,60,0.00,,,0.00,LWC V2.00 B2112,2013-06-22 22:18:00,
2013-06-22 15:23:00,68.0,53.6,29.90,SSE,150,1.0,9.0,60,0.00,,,0.00,LWC V2.00 B2112,2013-06-22 22:23:00,
2013-06-22 15:28:00,67.9,53.9,29.89,NW,324,3.0,5.0,61,0.00,,,0.00,LWC V2.00 B2112,2013-06-22 22:28:00,
2013-06-22 15:33:00,67.1,54.1,29.89,NW,323,2.0,3.0,63,0.00,,,0.00,LWC V2.00 B2112,2013-06-22 22:33:00,
2013-06-22 15:38:00,67.2,54.6,29.89,SSW,212,2.0,5.0,64,0.00,,,0.00,LWC V2.00 B2112,2013-06-22 22:38:00,
2013-06-22 15:43:00,66.5,54.8,29.89,SE,145,3.0,7.0,66,0.00,,,0.00,LWC V2.00 B2112,2013-06-22 22:43:00,
2013-06-22 15:48:00,66.2,54.9,29.89,West,281,1.0,8.0,67,0.00,,,0.00,LWC V2.00 B2112,2013-06-22 22:48:00,
2013-06-22 15:53:00,66.1,55.2,29.89,ENE,77,1.0,5.0,68,0.00,,,0.00,LWC V2.00 B2112,2013-06-22 22:53:00,
2013-06-22 15:58:00,65.8,55.3,29.88,East,86,3.0,9.0,69,0.00,,,0.00,LWC V2.00 B2112,2013-06-22 22:58:00,
2013-06-22 16:03:00,65.7,55.6,29.88,ENE,61,5.0,5.0,70,0.00,,,0.00,LWC V2.00 B2112,2013-06-22 23:03:00,
2013-06-22 16:08:00,65.8,55.7,29.88,East,81,6.0,8.0,70,0.00,,,0.00,LWC V2.00 B2112,2013-06-22 23:08:00,
2013-06-22 16:13:00,65.6,55.9,29.88,NE,54,5.0,6.0,71,0.00,,,0.00,LWC V2.00 B2112,2013-06-22 23:13:00,
2013-06-22 16:18:00,65.5,56.2,29.88,North,9,2.0,6.0,72,0.00,,,0.00,LWC V2.00 B2112,2013-06-22 23:18:00,
2013-06-22 16:23:00,65.6,55.9,29.88,NE,46,2.0,6.0,71,0.00,,,0.00,LWC V2.00 B2112,2013-06-22 23:23:00,
2013-06-22 16:28:00,65.6,56.3,29.88,SSW,205,1.0,6.0,72,0.00,,,0.00,LWC V2.00 B2112,2013-06-22 23:28:00,
2013-06-22 16:33:00,65.7,56.4,29.88,SE,129,2.0,6.0,72,0.00,,,0.00,LWC V2.00 B2112,2013-06-22 23:33:00,
2013-06-22 16:38:00,65.5,56.6,29.87,West,270,4.0,4.0,73,0.00,,,0.00,LWC V2.00 B2112,2013-06-22 23:38:00,
2013-06-22 16:43:00,66.0,57.1,29.87,NNW,344,1.0,2.0,73,0.00,,,0.00,LWC V2.00 B2112,2013-06-22 23:43:00,
2013-06-22 16:48:00,66.3,56.6,29.87,SW,215,2.0,8.0,71,0.00,,,0.00,LWC V2.00 B2112,2013-06-22 23:48:00,
2013-06-22 16:53:00,66.0,56.7,29.87,WSW,253,0.0,2.0,72,0.00,,,0.00,LWC V2.00 B2112,2013-06-22 23:53:00,
2013-06-22 16:58:00,66.4,56.7,29.86,South,181,1.0,7.0,71,0.00,,,0.00,LWC V2.00 B2112,2013-06-22 23:58:00,
2013-06-22 17:03:00,66.6,56.9,29.86,WSW,253,2.0,7.0,71,0.00,,,0.00,LWC V2.00 B2112,2013-06-23 00:03:00,
2013-06-22 17:08:00,66.4,56.3,29.86,ENE,64,3.0,8.0,70,0.00,,,0.00,LWC V2.00 B2112,2013-06-23 00:08:00,
2013-06-22 17:13:00,65.9,56.2,29.85,SE,134,2.0,7.0,71,0.00,,,0.00,LWC V2.00 B2112,2013-06-23 00:13:00,
2013-06-22 17:18:00,65.8,56.1,29.85,WNW,288,2.0,8.0,71,0.00,,,0.00,LWC V2.00 B2112,2013-06-23 00:18:00,
2013-06-22 17:23:00,65.7,56.4,29.85,NNW,344,3.0,6.0,72,0.00,,,0.00,LWC V2.00 B2112,2013-06-23 00:23:00,
2013-06-22 17:28:00,65.7,56.4,29.85,East,91,1.0,5.0,72,0.00,,,0.00,LWC V2.00 B2112,2013-06-23 00:28:00,
2013-06-22 17:33:00,65.7,56.0,29.84,East,90,3.0,5.0,71,0.00,,,0.00,LWC V2.00 B2112,2013-06-23 00:33:00,
2013-06-22 17:38:00,65.2,55.9,29.85,ESE,105,8.0,8.0,72,0.00,,,0.00,LWC V2.00 B2112,2013-06-23 00:38:00,
2013-06-22 17:43:00,64.8,55.6,29.84,ESE,104,8.0,8.0,72,0.00,,,0.00,LWC V2.00 B2112,2013-06-23 00:43:00,
2013-06-22 17:48:00,64.7,55.8,29.84,East,79,2.0,8.0,73,0.00,,,0.00,LWC V2.00 B2112,2013-06-23 00:48:00,
2013-06-22 17:53:00,65.0,55.7,29.84,SSE,153,3.0,6.0,72,0.00,,,0.00,LWC V2.00 B2112,2013-06-23 00:53:00,
2013-06-22 17:58:00,65.0,55.7,29.84,ESE,112,4.0,4.0,72,0.00,,,0.00,LWC V2.00 B2112,2013-06-23 00:58:00,
2013-06-22 18:03:00,64.7,55.5,29.84,WSW,245,3.0,4.0,72,0.00,,,0.00,LWC V2.00 B2112,2013-06-23 01:03:00,
2013-06-22 18:08:00,64.7,55.5,29.84,SSW,205,3.0,7.0,72,0.00,,,0.00,LWC V2.00 B2112,2013-06-23 01:08:00,
2013-06-22 18:13:00,64.7,55.5,29.84,North,11,1.0,7.0,72,0.00,,,0.00,LWC V2.00 B2112,2013-06-23 01:13:00,
2013-06-22 18:18:00,64.7,55.8,29.85,NNE,21,2.0,4.0,73,0.00,,,0.00,LWC V2.00 B2112,2013-06-23 01:18:00,
2013-06-22 18:23:00,64.4,55.5,29.84,East,101,2.0,9.0,73,0.00,,,0.00,LWC V2.00 B2112,2013-06-23 01:23:00,
2013-06-22 18:28:00,63.9,55.4,29.84,East,91,2.0,8.0,74,0.00,,,0.00,LWC V2.00 B2112,2013-06-23 01:28:00,
2013-06-22 18:33:00,63.7,55.3,29.84,ESE,122,1.0,7.0,74,0.00,,,0.00,LWC V2.00 B2112,2013-06-23 01:33:00,
2013-06-22 18:38:00,63.7,55.3,29.85,NNE,25,3.0,9.0,74,0.00,,,0.00,LWC V2.00 B2112,2013-06-23 01:38:00,
2013-06-22 18:43:00,63.7,55.3,29.84,NNW,331,2.0,4.0,74,0.00,,,0.00,LWC V2.00 B2112,2013-06-23 01:43:00,
2013-06-22 18:48:00,63.3,55.2,29.84,West,273,0.0,4.0,75,0.00,,,0.00,LWC V2.00 B2112,2013-06-23 01:48:00,
2013-06-22 18:53:00,63.2,55.1,29.84,NNW,331,1.0,4.0,75,0.00,,,0.00,LWC V2.00 B2112,2013-06-23 01:53:00,
2013-06-22 18:58:00,62.8,54.8,29.84,NNE,19,1.0,3.0,75,0.00,,,0.00,LWC V2.00 B2112,2013-06-23 01:58:00,
2013-06-22 19:03:00,62.2,54.5,29.84,SSE,155,1.0,4.0,76,0.00,,,0.00,LWC V2.00 B2112,2013-06-23 02:03:00,
2013-06-22 19:08:00,61.6,54.3,29.84,SE,129,0.0,3.0,77,0.00,,,0.00,LWC V2.00 B2112,2013-06-23 02:08:00,
2013-06-22 19:13:00,61.1,54.2,29.84,NNW,331,1.0,6.0,78,0.00,,,0.00,LWC V2.00 B2112,2013-06-23 02:13:00,
2013-06-22 19:18:00,60.5,54.3,29.84,NNE,13,4.0,4.0,80,0.00,,,0.00,LWC V2.00 B2112,2013-06-23 02:18:00,
2013-06-22 19:23:00,60.1,54.2,29.84,East,91,1.0,3.0,81,0.00,,,0.00,LWC V2.00 B2112,2013-06-23 02:23:00,
2013-06-22 19:28:00,59.7,53.9,29.84,SSE,162,1.0,4.0,81,0.00,,,0.00,LWC V2.00 B2112,2013-06-23 02:28:00,
2013-06-22 19:33:00,59.3,53.8,29.84,ESE,106,2.0,5.0,82,0.00,,,0.00,LWC V2.00 B2112,2013-06-23 02:33:00,
2013-06-22 19:38:00,58.9,53.7,29.84,WNW,302,3.0,6.0,83,0.00,,,0.00,LWC V2.00 B2112,2013-06-23 02:38:00,
2013-06-22 19:43:00,58.7,53.9,29.85,SSE,160,2.0,6.0,84,0.00,,,0.00,LWC V2.00 B2112,2013-06-23 02:43:00,
2013-06-22 19:48:00,58.4,53.6,29.84,NE,49,2.0,5.0,84,0.00,,,0.00,LWC V2.00 B2112,2013-06-23 02:48:00,
2013-06-22 19:53:00,58.2,53.4,29.84,ENE,71,2.0,7.0,84,0.00,,,0.00,LWC V2.00 B2112,2013-06-23 02:53:00,
2013-06-22 19:58:00,58.0,53.5,29.84,East,101,0.0,6.0,85,0.00,,,0.00,LWC V2.00 B2112,2013-06-23 02:58:00,
2013-06-22 20:03:00,57.9,53.4,29.85,NE,43,3.0,3.0,85,0.00,,,0.00,LWC V2.00 B2112,2013-06-23 03:03:00,
2013-06-22 20:08:00,57.8,53.3,29.84,NW,309,2.0,6.0,85,0.00,,,0.00,LWC V2.00 B2112,2013-06-23 03:08:00,
2013-06-22 20:13:00,57.6,53.1,29.85,NE,50,1.0,5.0,85,0.00,,,0.00,LWC V2.00 B2112,2013-06-23 03:13:00,
2013-06-22 20:18:00,57.5,53.3,29.85,East,98,2.0,2.0,86,0.00,,,0.00,LWC V2.00 B2112,2013-06-23 03:18:00,
2013-06-22 20:23:00,57.5,53.3,29.85,WNW,300,3.0,9.0,86,0.00,,,0.00,LWC V2.00 B2112,2013-06-23 03:23:00,
2013-06-22 20:28:00,57.4,53.2,29.85,NNE,22,4.0,4.0,86,0.00,,,0.00,LWC V2.00 B2112,2013-06-23 03:28:00,
2013-06-22 20:33:00,57.3,53.1,29.85,NW,307,2.0,2.0,86,0.00,,,0.00,LWC V2.00 B2112,2013-06-23 03:33:00,
2013-06-22 20:38:00,57.2,53.0,29.85,WNW,298,0.0,6.0,86,0.00,,,0.00,LWC V2.00 B2112,2013-06-23 03:38:00,
2013-06-22 20:43:00,57.1,52.9,29.85,ESE,107,1.0,6.0,86,0.00,,,0.00,LWC V2.00 B2112,2013-06-23 03:43:00,
2013-06-22 20:48:00,57.1,53.3,29.85,WNW,301,4.0,4.0,87,0.00,,,0.00,LWC V2.00 B2112,2013-06-23 03:48:00,
2013-06-22 20:53:00,57.0,53.2,29.85,WNW,293,1.0,3.0,87,0.00,,,0.00,LWC V2.00 B2112,2013-06-23 03:53:00,
2013-06-22 20:58:00,56.9,53.1,29.85,NNE,19,2.0,2.0,87,0.00,,,0.00,LWC V2.00 B2112,2013-06-23 03:58:00,
2013-06-22 21:01:00,56.9,53.1,29.85,West,263,2.0,5.0,87,0.00,,,0.00,LWC V2.00 B2112,2013-06-23 04:01:00,
2013-06-22 21:06:00,56.8,53.0,29.85,WSW,257,2.0,5.0,87,0.00,,,0.00,LWC V2.00 B2112,2013-06-23 04:06:00,
2013-06-22 21:11:00,56.7,52.9,29.85,SSE,163,1.0,8.0,87,0.00,,,0.00,LWC V2.00 B2112,2013-06-23 04:11:00,
2013-06-22 21:16:00,56.6,52.8,29.85,WNW,287,2.0,5.0,87,0.00,,,0.00,LWC V2.00 B2112,2013-06-23 04:16:00,
2013-06-22 21:21:00,56.6,52.8,29.85,South,172,3.0,3.0,87,0.00,,,0.00,LWC V2.00 B2112,2013-06-23 04:21:00,
2013-06-22 21:26:00,56.5,52.7,29.86,NW,315,2.0,4.0,87,0.00,,,0.00,LWC V2.00 B2112,2013-06-23 04:26:00,
2013-06-22 21:31:00,56.4,52.6,29.86,NW,324,3.0,3.0,87,0.00,,,0.00,LWC V2.00 B2112,2013-06-23 04:31:00,
2013-06-22 21:36:00,56.3,52.5,29.86,ESE,120,2.0,6.0,87,0.00,,,0.00,LWC V2.00 B2112,2013-06-23 04:36:00,
2013-06-22 21:41:00,56.3,52.5,29.86,SSE,149,2.0,4.0,87,0.00,,,0.00,LWC V2.00 B2112,2013-06-23 04:41:00,
2013-06-22 21:46:00,56.2,52.7,29.86,WSW,239,1.0,8.0,88,0.00,,,0.00,LWC V2.00 B2112,2013-06-23 04:46:00,
2013-06-22 21:51:00,56.1,52.6,29.86,North,352,1.0,5.0,88,0.00,,,0.00,LWC V2.00 B2112,2013-06-23 04:51:00,
2013-06-22 21:56:00,56.1,52.6,29.86,West,270,2.0,5.0,88,0.00,,,0.00,LWC V2.00 B2112,2013-06-23 04:56:00,
2013-06-22 22:01:00,56.1,52.6,29.86,WSW,252,1.0,3.0,88,0.00,,,0.00,LWC V2.00 B2112,2013-06-23 05:01:00,
2013-06-22 22:06:00,56.0,52.5,29.86,WNW,300,1.0,2.0,88,0.00,,,0.00,LWC V2.00 B2112,2013-06-23 05:06:00,
2013-06-22 22:11:00,56.1,52.6,29.86,East,98,0.0,5.0,88,0.00,,,0.00,LWC V2.00 B2112,2013-06-23 05:11:00,
2013-06-22 22:16:00,56.2,52.7,29.86,East,94,1.0,2.0,88,0.00,,,0.00,LWC V2.00 B2112,2013-06-23 05:16:00,
2013-06-22 22:21:00,56.3,52.8,29.86,NW,319,1.0,2.0,88,0.00,,,0.00,LWC V2.00 B2112,2013-06-23 05:21:00,
2013-06-22 22:26:00,56.4,52.9,29.86,SE,130,0.0,2.0,88,0.00,,,0.00,LWC V2.00 B2112,2013-06-23 05:26:00,
2013-06-22 22:31:00,56.4,52.9,29.86,ENE,64,1.0,4.0,88,0.00,,,0.00,LWC V2.00 B2112,2013-06-23 05:31:00,
2013-06-22 22:36:00,56.4,52.9,29.86,East,96,1.0,3.0,88,0.00,,,0.00,LWC V2.00 B2112,2013-06-23 05:36:00,
2013-06-22 22:41:00,56.4,52.9,29.86,ESE,115,1.0,3.0,88,0.00,,,0.00,LWC V2.00 B2112,2013-06-23 05:41:00,
2013-06-22 22:46:00,56.4,52.9,29.86,North,5,0.0,1.0,88,0.00,,,0.00,LWC V2.00 B2112,2013-06-23 05:46:00,
2013-06-22 22:51:00,56.4,52.9,29.86,ENE,65,2.0,2.0,88,0.00,,,0.00,LWC V2.00 B2112,2013-06-23 05:51:00,
2013-06-22 22:56:00,56.4,52.9,29.86,NW,326,0.0,0.0,88,0.00,,,0.00,LWC V2.00 B2112,2013-06-23 05:56:00,
2013-06-22 23:01:00,56.3,52.8,29.86,NW,325,1.0,4.0,88,0.00,,,0.00,LWC V2.00 B2112,2013-06-23 06:01:00,
2013-06-22 23:06:00,56.3,52.8,29.86,NW,325,0.0,1.0,88,0.00,,,0.00,LWC V2.00 B2112,2013-06-23 06:06:00,
2013-06-22 23:11:00,56.3,52.8,29.86,SW,217,0.0,1.0,88,0.00,,,0.00,LWC V2.00 B2112,2013-06-23 06:11:00,
2013-06-22 23:16:00,56.1,52.6,29.85,NNE,13,1.0,4.0,88,0.00,,,0.00,LWC V2.00 B2112,2013-06-23 06:16:00,
2013-06-22 23:21:00,56.1,52.6,29.85,East,88,2.0,4.0,88,0.00,,,0.00,LWC V2.00 B2112,2013-06-23 06:21:00,
2013-06-22 23:26:00,56.0,52.5,29.85,NW,323,2.0,4.0,88,0.00,,,0.00,LWC V2.00 B2112,2013-06-23 06:26:00,
2013-06-22 23:31:00,55.9,52.4,29.85,ESE,116,0.0,3.0,88,0.00,,,0.00,LWC V2.00 B2112,2013-06-23 06:31:00,
2013-06-22 23:36:00,55.8,52.3,29.85,NNE,30,2.0,3.0,88,0.00,,,0.00,LWC V2.00 B2112,2013-06-23 06:36:00,
2013-06-22 23:41:00,55.8,52.3,29.85,SSW,211,1.0,1.0,88,0.00,,,0.00,LWC V2.00 B2112,2013-06-23 06:41:00,
2013-06-22 23:46:00,55.7,52.2,29.85,NW,322,0.0,3.0,88,0.00,,,0.00,LWC V2.00 B2112,2013-06-23 06:46:00,
2013-06-22 23:51:00,55.7,52.2,29.85,NW,320,3.0,3.0,88,0.00,,,0.00,LWC V2.00 B2112,2013-06-23 06:51:00,
2013-06-22 23:56:00,55.7,52.2,29.85,NNE,20,2.0,2.0,88,0.00,,,0.00,LWC V2.00 B2112,2013-06-23 06:56:00,